Aérodrome :
LOGIN :

S'inscrire | Disclaimer

   EN    FR    IT 

 










Légende :    VFR   VFR Marginal   IFR   IFR Intensif   IFR Très Intensif
Visi : 
Plafond : 
>= 8 km
>= 3000ft
5 à 8 km
1000 à 3000 ft
1500m à 5 km
500 à 1000 ft
800 à 1500m
200 à 500 ft
< 800m
< 200 ft
Symboles :   Orages  Brouillard  Fortes neiges  Fortes précipitations  Vent > 20 kt
SIGMETs :   Divers  Orages  Givrage  Turbulence  Onde Orograph.  Cendres Volcan.







- Altitude de l'aérodrome : 1260 ft
- Code IATA : LDE
- Voir les cartes d'approche


LFBT - Tarbes / Ossun

DERNIER METAR :
  • 231800Z AUTO VRB02KT CAVOK 08/05 Q1016 NOSIG

METARs EXPIRÉS :
  • 231730Z AUTO 20004KT CAVOK 09/06 Q1016 NOSIG
  • 231700Z AUTO VRB02KT CAVOK 10/05 Q1016 NOSIG
  • 231630Z AUTO VRB02KT CAVOK 14/05 Q1015 NOSIG
  • 231600Z AUTO 33002KT CAVOK 16/05 Q1015 NOSIG
  • 231530Z AUTO 05003KT CAVOK 18/04 Q1015 NOSIG

TAF TAF LFBT
Valide du 23 à 18h jusqu'au 24 à 18h UTC


231700Z 2318/2418 VRB02KT CAVOK
PROB30
TEMPO 2403/2411 SCT100TCU
Pas de NOTAMs connus pour ce terrain.



MET'MAP, la Météo Aéronautique d'un coup d'oeil ! - Copyright ORBIFLY Décembre 2007 - Disclaimer

ORBIFLY MET'MAP TEAM :

Programmation & Développement : Alexandra Zaïnal
Conception & Développement : Baudouin d'Aumeries
Co-Programmation & Développement : Marc-Olivier Méhu
Soutien technique & logistique : Manuel Goepfert

Contact : metmap@orbifly.com




SOURCES & CREDITS :

   NOAA